Time;durP1;ratioP1;P1;durP2;ratioP2;P2;SDS_P1;SDS_P2;PMS_P1;PMS_P2;Temp;Humidity;BMP_temperature;BMP_pressure;BME280_temperature;BME280_humidity;BME280_pressure;Samples;Min_cycle;Max_cycle;Signal;HPM_P1;HPM_P2
2021/05/21 00:02:49;;;;;;;3.43;1.00;;;;;;;;;;4972198;28;20234;-70
2021/05/21 00:05:53;;;;;;;2.40;0.80;;;;;;;;;;4991511;28;20549;-70
2021/05/21 00:08:58;;;;;;;2.53;1.03;;;;;;;;;;4993810;28;20202;-70
2021/05/21 00:12:02;;;;;;;1.00;0.90;;;;;;;;;;4993562;28;20226;-70
2021/05/21 00:15:07;;;;;;;4.10;1.00;;;;;;;;;;4978481;28;20191;-70
2021/05/21 00:18:11;;;;;;;2.43;0.60;;;;;;;;;;4963050;28;20183;-70
2021/05/21 00:21:16;;;;;;;1.17;0.80;;;;;;;;;;4979204;28;20182;-70
2021/05/21 00:24:20;;;;;;;1.00;0.70;;;;;;;;;;4981603;28;20684;-71
2021/05/21 00:27:24;;;;;;;0.80;0.80;;;;;;;;;;4962510;28;20678;-70
2021/05/21 00:30:28;;;;;;;1.70;0.80;;;;;;;;;;4974536;28;20191;-71
2021/05/21 00:33:32;;;;;;;1.87;0.77;;;;;;;;;;4974463;28;20222;-70
2021/05/21 00:36:44;;;;;;;2.37;0.87;;;;;;;;;;4991419;28;20229;-70
2021/05/21 00:39:48;;;;;;;0.87;0.70;;;;;;;;;;4986264;28;20542;-70
2021/05/21 00:42:52;;;;;;;1.90;0.80;;;;;;;;;;4986516;28;20222;-70
2021/05/21 00:45:57;;;;;;;3.27;0.90;;;;;;;;;;4982468;28;20191;-70
2021/05/21 00:49:01;;;;;;;1.47;0.80;;;;;;;;;;4962251;28;20178;-70
2021/05/21 00:52:05;;;;;;;1.63;1.00;;;;;;;;;;4974225;28;20219;-70
2021/05/21 00:55:11;;;;;;;0.87;0.80;;;;;;;;;;4974601;28;20202;-70
2021/05/21 00:58:15;;;;;;;0.63;0.57;;;;;;;;;;4965912;28;20634;-70
2021/05/21 01:01:21;;;;;;;0.80;0.80;;;;;;;;;;4978341;28;20179;-70
2021/05/21 01:04:25;;;;;;;1.00;0.80;;;;;;;;;;4980276;28;20546;-70
2021/05/21 01:07:29;;;;;;;0.77;0.70;;;;;;;;;;4980505;28;20561;-70
2021/05/21 01:10:33;;;;;;;2.33;0.90;;;;;;;;;;4978085;28;20207;-71
2021/05/21 01:13:37;;;;;;;1.23;1.03;;;;;;;;;;4982627;28;20214;-70
2021/05/21 01:16:42;;;;;;;2.13;0.77;;;;;;;;;;4978058;28;20629;-71
2021/05/21 01:19:46;;;;;;;0.97;0.80;;;;;;;;;;4977705;28;20194;-71
2021/05/21 01:22:51;;;;;;;2.17;1.00;;;;;;;;;;4977380;28;20226;-70
2021/05/21 01:25:55;;;;;;;1.10;1.00;;;;;;;;;;4992511;28;20190;-71
2021/05/21 01:29:00;;;;;;;1.10;0.80;;;;;;;;;;4997277;28;20205;-71
2021/05/21 01:32:08;;;;;;;1.63;0.80;;;;;;;;;;4966100;28;20693;-71
2021/05/21 01:35:17;;;;;;;1.30;0.80;;;;;;;;;;4983051;28;20187;-70
2021/05/21 01:38:21;;;;;;;1.10;1.00;;;;;;;;;;4977229;28;20191;-70
2021/05/21 01:41:28;;;;;;;1.10;0.90;;;;;;;;;;4977555;28;20515;-70
2021/05/21 01:44:32;;;;;;;3.80;0.90;;;;;;;;;;4983798;28;20182;-70
2021/05/21 01:47:38;;;;;;;0.80;0.80;;;;;;;;;;4989917;28;20218;-70
2021/05/21 01:50:42;;;;;;;1.17;1.07;;;;;;;;;;4977161;28;20191;-70
2021/05/21 01:53:49;;;;;;;1.13;0.97;;;;;;;;;;4977720;28;20515;-70
2021/05/21 01:56:53;;;;;;;1.20;0.90;;;;;;;;;;4980689;28;20183;-70
2021/05/21 01:59:57;;;;;;;0.87;0.80;;;;;;;;;;4964842;28;20199;-71
2021/05/21 02:03:01;;;;;;;1.83;1.13;;;;;;;;;;4978564;28;20696;-70
2021/05/21 02:06:05;;;;;;;2.80;1.00;;;;;;;;;;4994191;28;20194;-70
2021/05/21 02:09:10;;;;;;;1.30;0.90;;;;;;;;;;4996211;28;20229;-70
2021/05/21 02:12:15;;;;;;;2.80;1.10;;;;;;;;;;4996285;28;20565;-70
2021/05/21 02:15:19;;;;;;;2.23;1.20;;;;;;;;;;4975553;28;20187;-70
2021/05/21 02:18:23;;;;;;;1.53;1.20;;;;;;;;;;4981783;28;20195;-70
2021/05/21 02:21:33;;;;;;;2.57;1.00;;;;;;;;;;4969462;28;20198;-70
2021/05/21 02:24:37;;;;;;;3.00;1.00;;;;;;;;;;4978681;28;20211;-70
2021/05/21 02:27:41;;;;;;;1.30;1.00;;;;;;;;;;4976705;28;20218;-70
2021/05/21 02:30:46;;;;;;;5.40;1.10;;;;;;;;;;4977617;28;20182;-70
2021/05/21 02:33:50;;;;;;;1.10;1.00;;;;;;;;;;4996127;28;20190;-70
2021/05/21 02:36:54;;;;;;;1.67;1.30;;;;;;;;;;4976039;28;20183;-71
2021/05/21 02:39:58;;;;;;;2.23;1.07;;;;;;;;;;4971845;28;20198;-70
2021/05/21 02:43:02;;;;;;;1.23;1.13;;;;;;;;;;4995406;28;20214;-70
2021/05/21 02:46:07;;;;;;;0.90;0.90;;;;;;;;;;4978869;28;20199;-70
2021/05/21 02:49:11;;;;;;;2.00;1.20;;;;;;;;;;4976315;28;20214;-70
2021/05/21 02:52:17;;;;;;;1.90;1.07;;;;;;;;;;4976102;28;20539;-70
2021/05/21 02:55:21;;;;;;;1.90;0.90;;;;;;;;;;4974178;28;20653;-70
2021/05/21 02:58:25;;;;;;;2.53;1.10;;;;;;;;;;4984596;28;20194;-70
2021/05/21 03:01:29;;;;;;;1.20;1.10;;;;;;;;;;4975835;28;20530;-70
2021/05/21 03:04:33;;;;;;;1.20;1.10;;;;;;;;;;4980430;28;20649;-70
2021/05/21 03:07:37;;;;;;;1.17;0.90;;;;;;;;;;4994877;28;20205;-70
2021/05/21 03:10:42;;;;;;;1.63;1.07;;;;;;;;;;4987338;28;20194;-70
2021/05/21 03:13:46;;;;;;;1.50;1.00;;;;;;;;;;4994540;28;20546;-70
2021/05/21 03:16:50;;;;;;;2.30;1.10;;;;;;;;;;4975692;28;20183;-70
2021/05/21 03:19:54;;;;;;;1.87;1.10;;;;;;;;;;4975826;28;20186;-70
2021/05/21 03:22:58;;;;;;;1.07;0.90;;;;;;;;;;4975478;28;20215;-70
2021/05/21 03:26:28;;;;;;;3.90;1.73;;;;;;;;;;4978077;28;20646;-70
2021/05/21 03:29:32;;;;;;;1.70;0.93;;;;;;;;;;4973916;28;20701;-71
2021/05/21 03:32:37;;;;;;;2.57;1.07;;;;;;;;;;4956210;29;20393;-71
2021/05/21 03:35:42;;;;;;;2.70;1.00;;;;;;;;;;4956234;29;20183;-71
2021/05/21 03:38:46;;;;;;;2.20;1.00;;;;;;;;;;4954832;29;20183;-71
2021/05/21 03:41:50;;;;;;;3.77;1.10;;;;;;;;;;4955838;28;20223;-71
2021/05/21 03:44:54;;;;;;;1.10;0.80;;;;;;;;;;4955805;29;20535;-71
2021/05/21 03:47:59;;;;;;;0.77;0.77;;;;;;;;;;4958692;28;20214;-71
2021/05/21 03:51:03;;;;;;;1.77;0.90;;;;;;;;;;4966418;28;20207;-71
2021/05/21 03:54:08;;;;;;;1.03;0.87;;;;;;;;;;4954585;28;20534;-71
2021/05/21 03:57:12;;;;;;;1.23;0.90;;;;;;;;;;4954761;29;20187;-71
2021/05/21 04:00:19;;;;;;;1.40;0.80;;;;;;;;;;4957087;28;20200;-71
2021/05/21 04:03:23;;;;;;;0.93;0.80;;;;;;;;;;4968522;28;20686;-70
2021/05/21 04:06:27;;;;;;;1.23;0.80;;;;;;;;;;4952659;28;20191;-70
2021/05/21 04:09:31;;;;;;;15.03;1.60;;;;;;;;;;4974674;28;20210;-71
2021/05/21 04:12:36;;;;;;;4.40;1.00;;;;;;;;;;4974586;28;20230;-70
2021/05/21 04:15:40;;;;;;;2.63;0.90;;;;;;;;;;4962795;28;20178;-71
2021/05/21 04:18:44;;;;;;;4.80;0.90;;;;;;;;;;4960899;28;20203;-70
2021/05/21 04:21:49;;;;;;;5.60;0.90;;;;;;;;;;4959561;28;20227;-70
2021/05/21 04:24:53;;;;;;;1.90;0.90;;;;;;;;;;4955280;29;20183;-71
2021/05/21 04:27:57;;;;;;;2.93;0.80;;;;;;;;;;4957901;28;20231;-70
2021/05/21 04:31:01;;;;;;;1.73;0.77;;;;;;;;;;4973538;28;20542;-71
2021/05/21 04:34:05;;;;;;;0.93;0.60;;;;;;;;;;4978835;28;20198;-71
2021/05/21 04:37:09;;;;;;;2.10;0.80;;;;;;;;;;4967026;28;20190;-71
2021/05/21 04:40:14;;;;;;;1.00;0.80;;;;;;;;;;4981191;28;20186;-71
2021/05/21 04:43:26;;;;;;;0.70;0.60;;;;;;;;;;4980348;28;20222;-71
2021/05/21 04:46:30;;;;;;;1.03;0.70;;;;;;;;;;4975751;28;20187;-71
2021/05/21 04:49:35;;;;;;;1.63;0.70;;;;;;;;;;4966062;28;20218;-70
2021/05/21 04:52:39;;;;;;;3.10;0.80;;;;;;;;;;4980377;28;20226;-71
2021/05/21 04:55:44;;;;;;;4.80;0.80;;;;;;;;;;4979826;28;20202;-71
2021/05/21 04:58:48;;;;;;;1.43;0.70;;;;;;;;;;4979609;28;20186;-70
2021/05/21 05:01:52;;;;;;;0.60;0.60;;;;;;;;;;4974347;28;20214;-71
2021/05/21 05:04:57;;;;;;;0.90;0.60;;;;;;;;;;4961254;28;20531;-71
2021/05/21 05:08:01;;;;;;;1.67;0.67;;;;;;;;;;4968156;28;20194;-72
2021/05/21 05:11:06;;;;;;;2.30;0.73;;;;;;;;;;4979597;28;20198;-72
2021/05/21 05:14:12;;;;;;;1.63;0.60;;;;;;;;;;4977632;28;20186;-71
2021/05/21 05:17:16;;;;;;;1.10;0.97;;;;;;;;;;4949406;29;20180;-72
2021/05/21 05:20:22;;;;;;;1.53;0.70;;;;;;;;;;4974937;28;20669;-72
2021/05/21 05:23:26;;;;;;;4.10;0.70;;;;;;;;;;4979374;28;20210;-72
2021/05/21 05:26:32;;;;;;;1.20;0.50;;;;;;;;;;4975408;28;20202;-72
2021/05/21 05:29:36;;;;;;;2.20;0.60;;;;;;;;;;4957582;29;20563;-72
2021/05/21 05:32:40;;;;;;;0.80;0.70;;;;;;;;;;4972273;28;20218;-72
2021/05/21 05:35:44;;;;;;;1.93;0.63;;;;;;;;;;4976704;28;20182;-72
2021/05/21 05:38:49;;;;;;;3.00;0.70;;;;;;;;;;4976040;28;20179;-72
2021/05/21 05:41:53;;;;;;;1.37;0.60;;;;;;;;;;4961926;28;20766;-72
2021/05/21 05:44:58;;;;;;;4.73;0.83;;;;;;;;;;4972813;28;20179;-72
2021/05/21 05:48:02;;;;;;;10.03;1.30;;;;;;;;;;4973550;28;20187;-72
2021/05/21 05:51:08;;;;;;;6.37;0.90;;;;;;;;;;4974696;28;20201;-72
2021/05/21 05:54:12;;;;;;;2.97;0.63;;;;;;;;;;4976826;28;20636;-72
2021/05/21 05:57:16;;;;;;;6.90;0.90;;;;;;;;;;4966074;28;20190;-72
2021/05/21 06:00:20;;;;;;;3.23;1.07;;;;;;;;;;4976725;28;20175;-72
2021/05/21 06:03:28;;;;;;;3.90;0.93;;;;;;;;;;4976633;28;20218;-72
2021/05/21 06:06:32;;;;;;;0.57;0.50;;;;;;;;;;4976810;28;20202;-72
2021/05/21 06:09:36;;;;;;;2.43;0.70;;;;;;;;;;4976977;28;20211;-73
2021/05/21 06:12:43;;;;;;;4.30;0.87;;;;;;;;;;4976677;28;20222;-73
2021/05/21 06:15:47;;;;;;;2.00;0.70;;;;;;;;;;4977009;28;20191;-73
2021/05/21 06:18:51;;;;;;;1.30;0.90;;;;;;;;;;4975805;28;20555;-73
2021/05/21 06:21:55;;;;;;;2.50;0.60;;;;;;;;;;4976278;28;20222;-73
2021/05/21 06:25:06;;;;;;;0.50;0.50;;;;;;;;;;4976595;28;20183;-73
2021/05/21 06:28:12;;;;;;;1.43;0.70;;;;;;;;;;4963619;28;20218;-73
2021/05/21 06:31:17;;;;;;;2.43;0.70;;;;;;;;;;4974112;28;20175;-73
2021/05/21 06:34:22;;;;;;;0.87;0.60;;;;;;;;;;4962066;28;20199;-73
2021/05/21 06:37:28;;;;;;;1.37;0.60;;;;;;;;;;4974241;28;20182;-73
2021/05/21 06:40:33;;;;;;;1.10;0.70;;;;;;;;;;4962178;28;20179;-73
2021/05/21 06:43:37;;;;;;;1.93;0.80;;;;;;;;;;4974204;28;20214;-73
2021/05/21 06:46:41;;;;;;;2.47;0.87;;;;;;;;;;4933812;29;20203;-73
2021/05/21 06:49:47;;;;;;;1.00;0.70;;;;;;;;;;4945239;29;20698;-73
2021/05/21 06:52:51;;;;;;;1.30;0.60;;;;;;;;;;4956491;28;20214;-73
2021/05/21 06:55:57;;;;;;;1.63;0.87;;;;;;;;;;4957886;28;20504;-73
2021/05/21 06:59:04;;;;;;;2.27;0.90;;;;;;;;;;4975672;28;20207;-73
2021/05/21 07:02:08;;;;;;;4.43;0.97;;;;;;;;;;4964067;28;20223;-73
2021/05/21 07:05:13;;;;;;;0.67;0.50;;;;;;;;;;4971254;28;20245;-73
2021/05/21 07:08:17;;;;;;;2.03;1.30;;;;;;;;;;4951878;29;20207;-73
2021/05/21 07:11:22;;;;;;;1.33;0.93;;;;;;;;;;4952757;28;20565;-73
2021/05/21 07:14:26;;;;;;;1.37;0.60;;;;;;;;;;4952717;29;20199;-73
2021/05/21 07:17:30;;;;;;;0.87;0.60;;;;;;;;;;4940779;29;20543;-73
2021/05/21 07:20:35;;;;;;;1.00;0.70;;;;;;;;;;4952584;29;20195;-73
2021/05/21 07:23:39;;;;;;;2.17;0.60;;;;;;;;;;4952708;28;20219;-73
2021/05/21 07:26:43;;;;;;;1.80;0.50;;;;;;;;;;4952499;29;20203;-73
2021/05/21 07:29:47;;;;;;;3.90;0.83;;;;;;;;;;4952395;29;20575;-73
2021/05/21 07:32:52;;;;;;;3.73;0.80;;;;;;;;;;4952648;28;20693;-73
2021/05/21 07:35:56;;;;;;;0.40;0.30;;;;;;;;;;4951420;29;20183;-73
2021/05/21 07:39:02;;;;;;;0.90;0.60;;;;;;;;;;4951890;29;20180;-74
2021/05/21 07:42:07;;;;;;;1.43;0.60;;;;;;;;;;4952193;28;20223;-73
2021/05/21 07:45:11;;;;;;;0.90;0.60;;;;;;;;;;4964332;28;20198;-73
2021/05/21 07:48:16;;;;;;;8.67;4.20;;;;;;;;;;4970568;28;20209;-73
2021/05/21 07:51:20;;;;;;;4.73;3.20;;;;;;;;;;4971080;28;20187;-74
2021/05/21 07:54:25;;;;;;;2.53;0.67;;;;;;;;;;4971385;28;20195;-74
2021/05/21 07:57:29;;;;;;;1.17;0.47;;;;;;;;;;4973299;28;20183;-73
2021/05/21 08:00:34;;;;;;;1.33;0.47;;;;;;;;;;4960175;28;20666;-72
2021/05/21 08:03:38;;;;;;;0.70;0.60;;;;;;;;;;4961361;28;20218;-73
2021/05/21 08:06:42;;;;;;;1.07;0.60;;;;;;;;;;4955312;29;20188;-72
2021/05/21 08:09:50;;;;;;;4.03;0.70;;;;;;;;;;4974362;28;20206;-72
2021/05/21 08:12:55;;;;;;;1.40;0.40;;;;;;;;;;4959971;28;20219;-73
2021/05/21 08:16:01;;;;;;;4.73;1.07;;;;;;;;;;4955309;28;20199;-73
2021/05/21 08:19:05;;;;;;;1.70;0.50;;;;;;;;;;4974082;28;20618;-73
2021/05/21 08:22:11;;;;;;;1.67;0.90;;;;;;;;;;4973058;28;20575;-73
2021/05/21 08:25:15;;;;;;;0.93;0.57;;;;;;;;;;4967915;28;20206;-73
2021/05/21 08:28:20;;;;;;;0.70;0.60;;;;;;;;;;4973973;28;20210;-73
2021/05/21 08:31:24;;;;;;;2.00;0.60;;;;;;;;;;4971010;28;20186;-73
2021/05/21 08:34:29;;;;;;;0.60;0.50;;;;;;;;;;4971040;28;20199;-73
2021/05/21 08:37:33;;;;;;;3.77;0.80;;;;;;;;;;4958651;28;20202;-73
2021/05/21 08:40:38;;;;;;;1.50;0.50;;;;;;;;;;4958294;28;20183;-72
2021/05/21 08:43:48;;;;;;;2.17;0.60;;;;;;;;;;4954652;28;20219;-73
2021/05/21 08:46:52;;;;;;;37.73;3.20;;;;;;;;;;4954924;29;20192;-73
2021/05/21 08:50:02;;;;;;;5.30;0.70;;;;;;;;;;4954319;29;20239;-73
2021/05/21 08:53:06;;;;;;;2.93;0.60;;;;;;;;;;4970663;28;20223;-73
2021/05/21 08:56:11;;;;;;;0.87;0.40;;;;;;;;;;4970152;28;20674;-73
2021/05/21 08:59:15;;;;;;;5.37;0.70;;;;;;;;;;4966165;28;20515;-73
2021/05/21 09:02:24;;;;;;;1.03;0.60;;;;;;;;;;4962750;28;20210;-73
2021/05/21 09:05:29;;;;;;;1.37;0.50;;;;;;;;;;4956196;28;20195;-73
2021/05/21 09:08:42;;;;;;;1.37;0.60;;;;;;;;;;4972752;28;20215;-74
2021/05/21 09:11:48;;;;;;;1.63;1.50;;;;;;;;;;4974452;28;20705;-73
2021/05/21 09:15:09;;;;;;;3.80;2.10;;;;;;;;;;4974477;28;20202;-73
2021/05/21 09:18:13;;;;;;;5.47;0.87;;;;;;;;;;4959135;28;20192;-73
2021/05/21 09:21:19;;;;;;;2.17;0.70;;;;;;;;;;4958207;28;20191;-73
2021/05/21 09:24:42;;;;;;;3.63;0.90;;;;;;;;;;4958370;29;20523;-73
2021/05/21 09:27:46;;;;;;;2.43;0.80;;;;;;;;;;4988051;23;20704;-71
2021/05/21 09:31:22;;;;;;;0.73;0.53;;;;;;;;;;5013815;28;20213;-72
2021/05/21 09:34:31;;;;;;;4.00;0.53;;;;;;;;;;4987199;28;20198;-71
2021/05/21 09:37:40;;;;;;;1.80;0.70;;;;;;;;;;4984613;28;20676;-72
2021/05/21 09:40:45;;;;;;;0.97;0.90;;;;;;;;;;4996154;28;20633;-71
2021/05/21 09:43:50;;;;;;;3.63;1.00;;;;;;;;;;4996367;28;20182;-72
2021/05/21 09:46:55;;;;;;;5.23;0.63;;;;;;;;;;4983128;28;20653;-72
2021/05/21 09:50:03;;;;;;;3.70;0.70;;;;;;;;;;4992384;28;20214;-72
2021/05/21 09:53:08;;;;;;;1.23;0.70;;;;;;;;;;4988574;28;20226;-72
2021/05/21 09:56:20;;;;;;;1.60;0.67;;;;;;;;;;4984012;28;20186;-70
2021/05/21 09:59:41;;;;;;;4.30;0.70;;;;;;;;;;4973111;28;20203;-70
2021/05/21 10:02:46;;;;;;;1.03;0.77;;;;;;;;;;4980226;28;20222;-70
2021/05/21 10:05:51;;;;;;;3.03;0.70;;;;;;;;;;4977243;28;20538;-70
2021/05/21 10:08:56;;;;;;;3.17;1.30;;;;;;;;;;4992404;28;20194;-70
2021/05/21 10:12:00;;;;;;;5.03;3.10;;;;;;;;;;4996154;28;20214;-70
2021/05/21 10:15:05;;;;;;;6.03;4.10;;;;;;;;;;4995433;28;20656;-70
2021/05/21 10:18:13;;;;;;;2.90;1.70;;;;;;;;;;4983985;28;20633;-70
2021/05/21 10:21:19;;;;;;;5.37;3.67;;;;;;;;;;4995895;28;20206;-70
2021/05/21 10:24:29;;;;;;;6.07;3.60;;;;;;;;;;4978532;28;20199;-70
2021/05/21 10:27:37;;;;;;;3.67;3.13;;;;;;;;;;4976071;28;20194;-71
2021/05/21 10:30:41;;;;;;;2.83;2.00;;;;;;;;;;4976611;28;20210;-71
2021/05/21 10:33:46;;;;;;;2.20;1.33;;;;;;;;;;4987336;28;20218;-69
2021/05/21 10:37:31;;;;;;;2.23;1.00;;;;;;;;;;4976258;28;20187;-70
2021/05/21 10:41:13;;;;;;;1.87;0.60;;;;;;;;;;4976326;28;20175;-71
2021/05/21 10:44:26;;;;;;;1.80;0.67;;;;;;;;;;4964622;28;20199;-71
2021/05/21 10:47:35;;;;;;;2.93;0.70;;;;;;;;;;4993731;28;20186;-72
2021/05/21 10:50:39;;;;;;;1.03;0.47;;;;;;;;;;4979029;28;20538;-71
2021/05/21 10:53:46;;;;;;;1.50;0.60;;;;;;;;;;4965966;28;20593;-71
2021/05/21 10:56:53;;;;;;;1.67;0.67;;;;;;;;;;4980693;28;20187;-71
2021/05/21 11:00:00;;;;;;;1.97;0.70;;;;;;;;;;4991057;28;20194;-72
2021/05/21 11:03:05;;;;;;;5.13;0.80;;;;;;;;;;4991631;28;20562;-72
2021/05/21 11:06:19;;;;;;;3.50;0.70;;;;;;;;;;4991190;28;20186;-71
2021/05/21 11:09:27;;;;;;;2.77;0.90;;;;;;;;;;4965294;28;20194;-72
2021/05/21 11:12:58;;;;;;;2.20;1.00;;;;;;;;;;4971771;28;20245;-71
2021/05/21 11:16:02;;;;;;;0.73;0.50;;;;;;;;;;4960268;28;20183;-71
2021/05/21 11:19:19;;;;;;;0.50;0.50;;;;;;;;;;4982722;28;20573;-71
2021/05/21 11:22:26;;;;;;;0.60;0.60;;;;;;;;;;4991218;28;20214;-71
2021/05/21 11:25:31;;;;;;;0.87;0.70;;;;;;;;;;4979135;28;20198;-71
2021/05/21 11:28:55;;;;;;;1.47;1.00;;;;;;;;;;4985030;28;20669;-71
2021/05/21 11:32:01;;;;;;;0.67;0.67;;;;;;;;;;4971656;28;20230;-71
2021/05/21 11:35:06;;;;;;;0.70;0.70;;;;;;;;;;4972101;28;20206;-73
2021/05/21 11:38:11;;;;;;;2.77;0.60;;;;;;;;;;4971312;28;20198;-70
2021/05/21 11:41:16;;;;;;;1.27;0.60;;;;;;;;;;4971504;28;20202;-70
2021/05/21 11:44:27;;;;;;;0.70;0.70;;;;;;;;;;4982890;28;20202;-71
2021/05/21 11:47:36;;;;;;;2.63;0.63;;;;;;;;;;4967558;28;20203;-71
2021/05/21 11:50:41;;;;;;;0.80;0.63;;;;;;;;;;4957214;28;20811;-70
2021/05/21 11:53:45;;;;;;;0.80;0.53;;;;;;;;;;4971642;28;20566;-70
2021/05/21 11:56:50;;;;;;;0.80;0.60;;;;;;;;;;4959530;28;20190;-70
2021/05/21 11:59:56;;;;;;;0.73;0.60;;;;;;;;;;4980387;28;20194;-70
2021/05/21 12:03:00;;;;;;;0.70;0.60;;;;;;;;;;4978256;28;20701;-71
2021/05/21 12:06:06;;;;;;;0.67;0.60;;;;;;;;;;4990353;28;20538;-72
2021/05/21 12:09:11;;;;;;;0.60;0.60;;;;;;;;;;4971803;28;20199;-70
2021/05/21 12:12:15;;;;;;;0.67;0.50;;;;;;;;;;4970987;28;20226;-70
2021/05/21 12:15:20;;;;;;;0.90;0.53;;;;;;;;;;4972813;28;20210;-70
2021/05/21 12:18:30;;;;;;;1.37;0.63;;;;;;;;;;4972142;28;20210;-70
2021/05/21 12:21:41;;;;;;;1.37;0.60;;;;;;;;;;4990239;28;20186;-70
2021/05/21 12:24:45;;;;;;;1.80;0.40;;;;;;;;;;4980510;28;20199;-70
2021/05/21 12:27:50;;;;;;;1.40;0.70;;;;;;;;;;4981839;28;20210;-70
2021/05/21 12:30:54;;;;;;;2.53;0.60;;;;;;;;;;4990322;28;20205;-70
2021/05/21 12:34:20;;;;;;;1.97;0.50;;;;;;;;;;4974703;28;20195;-69
2021/05/21 12:37:25;;;;;;;1.30;0.70;;;;;;;;;;4970516;28;20721;-70
2021/05/21 12:40:29;;;;;;;0.80;0.50;;;;;;;;;;4971069;28;20190;-70
2021/05/21 12:43:33;;;;;;;0.97;0.50;;;;;;;;;;4961458;28;20554;-70
2021/05/21 12:47:07;;;;;;;1.43;0.50;;;;;;;;;;4990148;28;20190;-72
2021/05/21 12:50:13;;;;;;;0.40;0.40;;;;;;;;;;4993058;28;20182;-71
2021/05/21 12:53:18;;;;;;;2.17;0.40;;;;;;;;;;4980132;28;20213;-70
2021/05/21 12:56:30;;;;;;;1.80;0.50;;;;;;;;;;4993547;28;20683;-70
2021/05/21 12:59:46;;;;;;;0.57;0.57;;;;;;;;;;4994057;28;20206;-70
2021/05/21 13:02:56;;;;;;;0.67;0.53;;;;;;;;;;4986413;28;20218;-70
2021/05/21 13:06:00;;;;;;;1.23;0.60;;;;;;;;;;4974515;28;20527;-70
2021/05/21 13:09:06;;;;;;;0.50;0.50;;;;;;;;;;4974883;28;20195;-71
2021/05/21 13:12:10;;;;;;;1.07;0.57;;;;;;;;;;4975703;28;20566;-70
2021/05/21 13:15:26;;;;;;;2.63;0.53;;;;;;;;;;4993701;28;20202;-70
2021/05/21 13:18:31;;;;;;;0.57;0.47;;;;;;;;;;4991605;28;20212;-70
2021/05/21 13:21:42;;;;;;;0.43;0.40;;;;;;;;;;4975134;28;20199;-70
2021/05/21 13:24:52;;;;;;;0.70;0.60;;;;;;;;;;4975579;28;20190;-70
2021/05/21 13:28:01;;;;;;;0.53;0.50;;;;;;;;;;4975225;28;20211;-71
2021/05/21 13:31:06;;;;;;;0.50;0.50;;;;;;;;;;4968102;28;20218;-71
2021/05/21 13:34:11;;;;;;;1.10;0.60;;;;;;;;;;4993088;28;20716;-71
2021/05/21 13:37:15;;;;;;;0.80;0.40;;;;;;;;;;4978505;28;20194;-70
2021/05/21 13:40:19;;;;;;;4.10;0.47;;;;;;;;;;4987233;28;20193;-71
2021/05/21 13:43:23;;;;;;;0.40;0.40;;;;;;;;;;4980908;28;20510;-71
2021/05/21 13:46:28;;;;;;;2.90;0.50;;;;;;;;;;4973962;28;20535;-72
2021/05/21 13:49:32;;;;;;;0.70;0.50;;;;;;;;;;4973174;28;20179;-72
2021/05/21 13:52:36;;;;;;;0.90;0.40;;;;;;;;;;4973557;28;20580;-71
2021/05/21 13:55:41;;;;;;;2.10;0.60;;;;;;;;;;4992655;28;20542;-72
2021/05/21 13:58:45;;;;;;;0.43;0.40;;;;;;;;;;4991291;28;20190;-72
2021/05/21 14:01:50;;;;;;;1.03;0.40;;;;;;;;;;4991290;28;20562;-71
2021/05/21 14:04:54;;;;;;;1.63;1.00;;;;;;;;;;4974461;28;20195;-71
2021/05/21 14:07:59;;;;;;;1.47;0.87;;;;;;;;;;4979968;28;20194;-72
2021/05/21 14:11:06;;;;;;;1.10;0.80;;;;;;;;;;4992622;28;20174;-71
2021/05/21 14:14:10;;;;;;;2.27;0.90;;;;;;;;;;4980339;28;20178;-72
2021/05/21 14:17:15;;;;;;;2.20;0.90;;;;;;;;;;4983581;28;20661;-72
2021/05/21 14:20:19;;;;;;;7.57;3.50;;;;;;;;;;4974629;28;20187;-71
2021/05/21 14:23:24;;;;;;;3.53;1.60;;;;;;;;;;4976560;28;20214;-71
2021/05/21 14:26:32;;;;;;;1.43;0.70;;;;;;;;;;4990519;28;20194;-71
2021/05/21 14:29:36;;;;;;;3.00;1.50;;;;;;;;;;4983785;28;20206;-71
2021/05/21 14:32:40;;;;;;;0.90;0.67;;;;;;;;;;4995444;28;20226;-71
2021/05/21 14:35:45;;;;;;;2.30;0.67;;;;;;;;;;4993739;28;20665;-72
2021/05/21 14:38:50;;;;;;;0.80;0.50;;;;;;;;;;4995743;28;20649;-72
2021/05/21 14:41:55;;;;;;;0.47;0.40;;;;;;;;;;4983474;28;20681;-72
2021/05/21 14:44:59;;;;;;;1.33;0.70;;;;;;;;;;4996139;28;20510;-71
2021/05/21 14:48:04;;;;;;;0.77;0.50;;;;;;;;;;4976514;28;20194;-71
2021/05/21 14:51:08;;;;;;;1.57;0.50;;;;;;;;;;4963842;28;20199;-72
2021/05/21 14:54:12;;;;;;;12.57;6.40;;;;;;;;;;4964412;28;20550;-72
2021/05/21 14:57:22;;;;;;;81.03;29.23;;;;;;;;;;4976375;28;20657;-72
2021/05/21 15:00:26;;;;;;;26.83;11.50;;;;;;;;;;4991196;28;20680;-71
2021/05/21 15:03:30;;;;;;;3.50;1.60;;;;;;;;;;4975335;28;20225;-72
2021/05/21 15:06:34;;;;;;;2.87;0.77;;;;;;;;;;4972406;28;20202;-72
2021/05/21 15:09:39;;;;;;;1.00;0.70;;;;;;;;;;4972308;28;20199;-72
2021/05/21 15:12:43;;;;;;;0.80;0.70;;;;;;;;;;4979201;28;20225;-73
2021/05/21 15:15:59;;;;;;;0.70;0.50;;;;;;;;;;4991144;28;20206;-72
2021/05/21 15:25:31;;;;;;;0.60;0.60;;;;;;;;;;4982427;28;20195;-72
2021/05/21 15:28:36;;;;;;;2.00;0.80;;;;;;;;;;4971368;28;20203;-72
2021/05/21 15:31:40;;;;;;;1.07;0.70;;;;;;;;;;4965193;28;20222;-72
2021/05/21 15:34:44;;;;;;;1.20;0.80;;;;;;;;;;4979116;28;20193;-73
2021/05/21 15:37:48;;;;;;;1.47;0.97;;;;;;;;;;4981563;28;20199;-73
2021/05/21 15:40:54;;;;;;;1.07;0.70;;;;;;;;;;4959381;28;20191;-73
2021/05/21 15:47:26;;;;;;;1.70;1.00;;;;;;;;;;4989090;28;20195;-73
2021/05/21 15:50:36;;;;;;;2.47;1.40;;;;;;;;;;4983701;28;20549;-73
2021/05/21 15:53:56;;;;;;;1.20;1.10;;;;;;;;;;4990208;28;20233;-73
2021/05/21 16:00:12;;;;;;;4.13;1.80;;;;;;;;;;4971051;28;20504;-73
2021/05/21 16:03:16;;;;;;;1.80;1.50;;;;;;;;;;4971090;28;20574;-73
2021/05/21 16:06:21;;;;;;;2.33;1.07;;;;;;;;;;4971017;28;20650;-73
2021/05/21 16:09:28;;;;;;;3.03;1.10;;;;;;;;;;4971713;28;20194;-72
2021/05/21 16:12:32;;;;;;;1.97;1.10;;;;;;;;;;4973666;28;20230;-72
2021/05/21 16:15:37;;;;;;;1.40;1.10;;;;;;;;;;4977322;28;20194;-73
2021/05/21 16:18:41;;;;;;;1.90;1.40;;;;;;;;;;4990596;28;20186;-73
2021/05/21 16:21:45;;;;;;;2.80;1.17;;;;;;;;;;4990529;28;20225;-73
2021/05/21 16:24:50;;;;;;;1.20;0.90;;;;;;;;;;4982900;28;20198;-71
2021/05/21 16:27:54;;;;;;;1.97;1.50;;;;;;;;;;4989764;28;20206;-72
2021/05/21 16:30:58;;;;;;;3.03;1.80;;;;;;;;;;4970796;28;20191;-72
2021/05/21 16:34:05;;;;;;;1.53;1.27;;;;;;;;;;4958018;28;20178;-71
2021/05/21 16:37:09;;;;;;;3.47;1.40;;;;;;;;;;4958836;28;20212;-73
2021/05/21 16:40:13;;;;;;;1.93;0.93;;;;;;;;;;4983424;28;20194;-72
2021/05/21 16:43:18;;;;;;;1.10;0.73;;;;;;;;;;4972929;28;20214;-73
2021/05/21 16:46:43;;;;;;;3.13;0.87;;;;;;;;;;4971419;28;20199;-71
2021/05/21 16:49:48;;;;;;;1.27;0.70;;;;;;;;;;4895225;29;20214;-74
2021/05/21 16:52:57;;;;;;;3.57;2.10;;;;;;;;;;4902903;29;20233;-75
2021/05/21 16:56:01;;;;;;;1.40;1.20;;;;;;;;;;4898743;29;20533;-74
2021/05/21 16:59:08;;;;;;;1.00;0.70;;;;;;;;;;4916673;29;20213;-75
2021/05/21 17:02:12;;;;;;;1.27;0.90;;;;;;;;;;4904928;29;20569;-75
2021/05/21 17:05:17;;;;;;;1.20;1.07;;;;;;;;;;4900578;29;20230;-75
2021/05/21 17:08:21;;;;;;;1.17;1.03;;;;;;;;;;4914056;29;20201;-75
2021/05/21 17:11:26;;;;;;;2.00;1.30;;;;;;;;;;4917074;29;20204;-75
2021/05/21 17:14:37;;;;;;;2.63;0.90;;;;;;;;;;4916026;29;20213;-75
2021/05/21 17:48:14;;;;;;;2.80;1.90;;;;;;;;;;4900032;29;20205;-74
2021/05/21 18:05:09;;;;;;;2.43;1.37;;;;;;;;;;4909326;29;20189;-75
2021/05/21 18:08:20;;;;;;;1.73;1.30;;;;;;;;;;4901988;29;20213;-74
2021/05/21 19:04:19;;;;;;;3.67;1.00;;;;;;;;;;4914971;29;20181;-73
2021/05/21 19:14:09;;;;;;;1.77;1.40;;;;;;;;;;4895970;29;20564;-75
2021/05/21 19:17:22;;;;;;;3.60;1.70;;;;;;;;;;4906155;29;20194;-74
2021/05/21 19:20:30;;;;;;;1.50;1.00;;;;;;;;;;4897548;29;20205;-74
2021/05/21 19:23:34;;;;;;;1.50;1.20;;;;;;;;;;4896979;29;20232;-76
2021/05/21 19:26:39;;;;;;;6.57;4.43;;;;;;;;;;4884046;29;20205;-75
2021/05/21 19:29:50;;;;;;;3.10;1.30;;;;;;;;;;4895759;29;20202;-75
2021/05/21 19:46:07;;;;;;;2.07;1.70;;;;;;;;;;4913945;29;20201;-75
2021/05/21 20:10:05;;;;;;;2.83;1.20;;;;;;;;;;4906156;29;20194;-75
2021/05/21 20:12:39;;;;;;;2.73;1.20;;;;;;;;;;4895107;29;20221;-75
2021/05/21 20:15:45;;;;;;;2.07;1.10;;;;;;;;;;4895080;29;20637;-75
2021/05/21 20:18:51;;;;;;;1.57;1.10;;;;;;;;;;4884048;29;20181;-73
2021/05/21 20:21:57;;;;;;;1.90;1.47;;;;;;;;;;4886242;29;20220;-73
2021/05/21 20:25:14;;;;;;;1.97;1.20;;;;;;;;;;4896654;29;20182;-74
2021/05/21 20:28:32;;;;;;;1.50;1.40;;;;;;;;;;4895589;29;20197;-74
2021/05/21 21:02:17;;;;;;;2.13;1.20;;;;;;;;;;4902583;29;20684;-74
2021/05/21 21:12:28;;;;;;;1.53;1.10;;;;;;;;;;4866809;29;20227;-75
2021/05/21 21:18:55;;;;;;;3.80;0.93;;;;;;;;;;4890731;29;20205;-75
2021/05/21 21:22:15;;;;;;;1.53;1.10;;;;;;;;;;4889506;29;20221;-75
2021/05/21 21:35:31;;;;;;;3.97;1.10;;;;;;;;;;4900677;29;20210;-75
2021/05/21 21:42:21;;;;;;;4.20;0.97;;;;;;;;;;4901327;29;20182;-75
2021/05/21 21:45:45;;;;;;;2.20;1.20;;;;;;;;;;4900861;29;20185;-75
2021/05/21 21:55:54;;;;;;;1.60;1.00;;;;;;;;;;4889259;29;20209;-75
2021/05/21 22:08:57;;;;;;;2.13;0.93;;;;;;;;;;4919608;29;20209;-75
2021/05/21 22:15:20;;;;;;;1.73;0.90;;;;;;;;;;4900259;29;20205;-75
2021/05/21 22:21:48;;;;;;;2.23;1.00;;;;;;;;;;4887955;29;20182;-75
2021/05/21 22:24:55;;;;;;;3.77;0.93;;;;;;;;;;4912531;29;20189;-75
2021/05/21 22:27:59;;;;;;;2.27;0.90;;;;;;;;;;4888690;29;20177;-75